Montpelier, ID

8:22 PM MDT on August 28, 2014 (GMT -0600)
EWPro | Change Station
CLOSE
Current Station
Personal Weather Station
Location: Grace, ID
Elevation: 5522 ft
Nearby Weather Stations

Elev 5522 ft 42.53 °N, 111.70 °W | Updated 1 second ago

Clear
Clear
65.7 °F
Feels Like 65.7 °F
N
4.7
Wind Variable Wind from ESE
Gusts 4.7 mph

Today
High -- | Low -- °F
--% Chance of Precip.
Yesterday
High -- | Low -- °F
Precip. -- in
6:46 AM 8:05 PM
Waxing Crescent, 11% visible
Pressure 30.18 in
Visibility 10.0 miles
Clouds Clear
Dew Point 51 °F
Humidity 59%
Rainfall 0.00 in
Snow Depth Not available.
UV 0 out of 12
Pollen 8.60 out of 12
Air Quality Not available.
Flu Activity Not available.
METAR KAFO 290215Z AUTO 00000KT 10SM CLR 16/09 A3018 RMK AO2

More Conditions Fewer Conditions

Pressure 30.18 in
Visibility 10.0 miles
Clouds Clear
Dew Point 51 °F
Humidity 59%
Rainfall 0.00 in
Snow Depth Not available.
UV 0 out of 12
Pollen 8.60 out of 12
Air Quality Not available.
Flu Activity Not available.
METAR KAFO 290215Z AUTO 00000KT 10SM CLR 16/09 A3018 RMK AO2

More Conditions Fewer Conditions

10-Day Weather Forecast

Almanac

Astronomy

Aug. 28, 2014 Rise Set
Actual Time 6:46 AM MDT 8:05 PM MDT
Civil Twilight 6:17 AM MDT 8:34 PM MDT
Nautical Twilight 5:41 AM MDT 9:09 PM MDT
Astronomical Twilight 5:04 AM MDT 9:46 PM MDT
Moon 9:46 AM MDT (8/28) 9:26 PM MDT (8/28)
Length of Visible Light 14h 17m
Length of Day
13h 19m
Tomorrow will be 2m 43s shorter.
Waxing Crescent, 11% of the Moon is Illuminated
Today
Waxing Crescent
Sep 2
First Quarter
Sep 8
Full
Sep 15
Last Quarter
Sep 24
New

Today's Extremes

State Highs State Lows

Community

WunderPhotos

Upload Photos

1,748,124 photos uploaded!

Nearby

Snow Depth

Station Depth Elevation
Franklin Basin 0 in 8170 ft
Somsen Ranch 0 in 6800 ft
Wildhorse Divide 0 in 6490 ft
Hilts Creek 0 in 8000 ft
Swede Peak 0 in 7640 ft

Earthquake Activity

City Distance Mag. Time & Date
No recent earthquake activity has been reported nearby.
Minimum magnitude displayed is 2.5.

Coastal Water Temperatures

Place Temperature
No Stations Reporting

Nearby Weather Stations